createdAt,value
2023-01-25T00:01:33.840Z,4.32
2023-01-25T00:04:02.296Z,4.90
2023-01-25T00:06:30.579Z,5.55
2023-01-25T00:08:58.842Z,3.67
2023-01-25T00:11:27.174Z,4.20
2023-01-25T00:13:57.140Z,3.97
2023-01-25T00:16:25.499Z,3.88
2023-01-25T00:18:53.963Z,3.88
2023-01-25T00:21:24.810Z,3.95
2023-01-25T00:23:54.477Z,3.47
2023-01-25T00:26:23.005Z,3.70
2023-01-25T00:28:51.919Z,3.72
2023-01-25T00:31:33.302Z,3.60
2023-01-25T00:34:07.630Z,3.10
2023-01-25T00:36:42.348Z,3.08
2023-01-25T00:47:38.559Z,2.58
2023-01-25T00:50:09.123Z,2.63
2023-01-25T00:52:38.775Z,2.15
2023-01-25T00:55:08.843Z,2.70
2023-01-25T00:57:37.529Z,3.53
2023-01-25T01:00:07.238Z,4.60
2023-01-25T01:05:05.471Z,2.90
2023-01-25T01:07:34.100Z,3.53
2023-01-25T01:10:02.280Z,4.75
2023-01-25T01:12:30.520Z,4.13
2023-01-25T01:14:59.105Z,3.80
2023-01-25T01:17:28.428Z,3.92
2023-01-25T01:19:56.554Z,3.90
2023-01-25T01:22:26.270Z,4.72
2023-01-25T01:24:56.968Z,3.10
2023-01-25T01:27:31.051Z,3.67
2023-01-25T01:30:20.180Z,3.50
2023-01-25T01:33:07.278Z,4.45
2023-01-25T01:36:44.057Z,3.95
2023-01-25T01:41:41.956Z,3.08
2023-01-25T01:44:17.089Z,5.30
2023-01-25T01:46:52.609Z,3.53
2023-01-25T01:49:25.831Z,4.50
2023-01-25T01:52:01.204Z,3.35
2023-01-25T01:54:37.584Z,4.45
2023-01-25T01:57:11.966Z,4.32
2023-01-25T01:59:45.686Z,3.67
2023-01-25T02:02:15.184Z,4.57
2023-01-25T02:05:38.595Z,4.57
2023-01-25T02:08:13.864Z,3.42
2023-01-25T02:10:45.158Z,3.72
2023-01-25T02:17:05.097Z,4.28
2023-01-25T02:19:44.845Z,4.55
2023-01-25T02:22:17.324Z,5.53
2023-01-25T02:24:52.797Z,3.30
2023-01-25T02:31:36.948Z,3.37
2023-01-25T02:37:46.667Z,3.38
2023-01-25T02:40:14.900Z,4.25
2023-01-25T02:46:20.083Z,4.78
2023-01-25T02:48:48.428Z,4.97
2023-01-25T02:51:16.568Z,3.95
2023-01-25T02:53:44.829Z,4.43
2023-01-25T02:56:13.371Z,3.67
2023-01-25T02:58:41.699Z,5.07
2023-01-25T03:01:11.706Z,4.43
2023-01-25T03:03:43.815Z,3.97
2023-01-25T03:08:41.574Z,4.50
2023-01-25T03:11:10.201Z,3.90
2023-01-25T03:13:39.643Z,4.03
2023-01-25T03:16:10.918Z,5.07
2023-01-25T03:18:43.889Z,5.40
2023-01-25T03:21:16.533Z,4.55
2023-01-25T03:23:46.198Z,5.93
2023-01-25T03:26:21.459Z,5.05
2023-01-25T03:29:08.517Z,4.97
2023-01-25T03:31:41.678Z,4.35
2023-01-25T03:34:11.719Z,4.00
2023-01-25T03:36:43.130Z,5.45
2023-01-25T03:39:11.489Z,4.68
2023-01-25T03:41:44.178Z,4.95
2023-01-25T03:44:15.482Z,5.43
2023-01-25T03:46:52.423Z,4.68
2023-01-25T03:49:23.367Z,5.45
2023-01-25T03:52:27.161Z,6.13
2023-01-25T03:54:57.610Z,5.65
2023-01-25T03:57:27.298Z,4.95
2023-01-25T04:00:01.677Z,6.63
2023-01-25T04:02:33.497Z,6.32
2023-01-25T04:08:46.553Z,4.90
2023-01-25T04:14:48.271Z,5.93
2023-01-25T04:17:31.820Z,5.28
2023-01-25T04:20:05.170Z,5.30
2023-01-25T04:22:38.377Z,4.75
2023-01-25T04:25:10.852Z,5.10
2023-01-25T04:27:47.599Z,5.75
2023-01-25T04:30:18.058Z,6.47
2023-01-25T04:35:41.108Z,3.10
2023-01-25T04:38:11.459Z,5.68
2023-01-25T04:40:43.976Z,3.90
2023-01-25T04:43:15.410Z,4.82
2023-01-25T04:45:46.443Z,4.13
2023-01-25T04:48:22.633Z,5.20
2023-01-25T04:50:59.245Z,5.28
2023-01-25T04:53:28.539Z,5.43
2023-01-25T04:56:27.392Z,4.90
2023-01-25T04:59:16.891Z,5.05
2023-01-25T05:05:53.424Z,6.38
2023-01-25T05:08:27.059Z,4.72
2023-01-25T05:11:00.399Z,4.25
2023-01-25T05:13:37.495Z,5.68
2023-01-25T05:16:18.113Z,4.55
2023-01-25T05:18:49.313Z,4.28
2023-01-25T05:21:52.699Z,4.60
2023-01-25T05:24:22.505Z,4.15
2023-01-25T05:27:04.153Z,4.55
2023-01-25T05:29:51.565Z,4.80
2023-01-25T05:32:24.437Z,4.38
2023-01-25T05:34:53.857Z,4.82
2023-01-25T05:37:24.729Z,4.43
2023-01-25T05:40:04.351Z,5.22
2023-01-25T05:42:37.342Z,4.57
2023-01-25T05:45:10.803Z,5.13
2023-01-25T05:47:42.101Z,4.28
2023-01-25T05:50:12.064Z,6.30
2023-01-25T05:52:59.978Z,4.75
2023-01-25T05:55:31.450Z,5.45
2023-01-25T05:58:09.520Z,4.13
2023-01-25T06:00:40.072Z,4.57
2023-01-25T06:03:14.727Z,3.90
2023-01-25T06:05:43.889Z,5.10
2023-01-25T06:08:12.395Z,5.38
2023-01-25T06:10:52.202Z,6.40
2023-01-25T06:13:22.255Z,5.70
2023-01-25T06:15:54.637Z,5.65
2023-01-25T06:18:41.713Z,4.82
2023-01-25T06:21:15.957Z,4.80
2023-01-25T06:23:45.245Z,5.60
2023-01-25T06:26:16.785Z,5.50
2023-01-25T06:28:45.079Z,5.18
2023-01-25T06:31:15.299Z,4.07
2023-01-25T06:33:50.578Z,4.03
2023-01-25T06:36:22.698Z,4.43
2023-01-25T06:38:52.303Z,4.93
2023-01-25T06:41:22.870Z,4.75
2023-01-25T06:43:54.316Z,4.78
2023-01-25T06:46:23.164Z,3.97
2023-01-25T06:48:51.971Z,3.20
2023-01-25T06:51:20.527Z,3.30
2023-01-25T06:53:49.079Z,3.53
2023-01-25T06:56:21.633Z,5.32
2023-01-25T06:58:52.053Z,4.05
2023-01-25T07:01:27.665Z,2.88
2023-01-25T07:03:59.949Z,4.32
2023-01-25T07:06:33.345Z,4.85
2023-01-25T07:09:06.149Z,4.32
2023-01-25T07:11:34.790Z,4.43
2023-01-25T07:14:05.128Z,4.35
2023-01-25T07:16:39.305Z,3.75
2023-01-25T07:19:08.807Z,3.22
2023-01-25T07:21:37.664Z,4.45
2023-01-25T07:24:06.970Z,3.43
2023-01-25T07:26:35.410Z,3.28
2023-01-25T07:29:05.349Z,3.42
2023-01-25T07:34:02.759Z,3.30
2023-01-25T07:36:32.957Z,3.95
2023-01-25T07:39:01.233Z,3.00
2023-01-25T07:41:29.442Z,3.17
2023-01-25T07:43:59.315Z,3.63
2023-01-25T07:46:37.542Z,3.65
2023-01-25T07:51:34.062Z,3.60
2023-01-25T07:54:04.576Z,2.75
2023-01-25T07:56:34.660Z,3.80
2023-01-25T07:59:04.100Z,2.83
2023-01-25T08:01:34.535Z,4.28
2023-01-25T08:04:05.757Z,4.03
2023-01-25T08:06:38.869Z,4.95
2023-01-25T08:09:09.988Z,4.38
2023-01-25T08:11:38.602Z,4.13
2023-01-25T08:14:06.940Z,5.38
2023-01-25T08:16:36.061Z,3.13
2023-01-25T08:19:06.457Z,3.47
2023-01-25T08:21:35.998Z,3.88
2023-01-25T08:24:07.943Z,4.75
2023-01-25T08:26:37.528Z,5.05
2023-01-25T08:29:10.817Z,3.95
2023-01-25T08:31:41.812Z,4.80
2023-01-25T08:34:12.473Z,3.63
2023-01-25T08:36:43.659Z,3.65
2023-01-25T08:39:15.770Z,3.55
2023-01-25T08:41:45.591Z,3.50
2023-01-25T08:46:45.266Z,4.13
2023-01-25T08:49:15.325Z,3.22
2023-01-25T08:51:44.979Z,3.40
2023-01-25T08:54:16.013Z,3.67
2023-01-25T08:56:45.490Z,3.45
2023-01-25T08:59:19.304Z,3.13
2023-01-25T09:01:47.556Z,2.58
2023-01-25T09:04:17.410Z,3.97
2023-01-25T09:06:46.257Z,3.72
2023-01-25T09:09:15.010Z,3.57
2023-01-25T09:11:43.622Z,3.53
2023-01-25T09:14:12.184Z,3.60
2023-01-25T09:16:40.690Z,3.53
2023-01-25T09:19:11.575Z,4.18
2023-01-25T09:21:41.692Z,3.70
2023-01-25T09:24:10.133Z,3.83
2023-01-25T09:26:44.227Z,3.20
2023-01-25T09:29:13.650Z,3.42
2023-01-25T09:31:43.973Z,3.65
2023-01-25T09:34:38.497Z,3.85
2023-01-25T09:37:10.839Z,3.03
2023-01-25T09:39:39.427Z,2.60
2023-01-25T09:42:37.791Z,2.88
2023-01-25T09:45:30.644Z,3.10
2023-01-25T09:48:05.814Z,3.50
2023-01-25T09:50:38.348Z,4.47
2023-01-25T09:53:24.845Z,4.25
2023-01-25T09:55:56.109Z,3.25
2023-01-25T09:58:32.017Z,3.42
2023-01-25T10:01:19.556Z,3.33
2023-01-25T10:03:56.421Z,3.50
2023-01-25T10:06:35.001Z,3.92
2023-01-25T10:09:13.264Z,4.57
2023-01-25T10:11:43.547Z,3.13
2023-01-25T10:14:16.236Z,3.20
2023-01-25T10:17:05.576Z,4.47
2023-01-25T10:19:53.698Z,3.75
2023-01-25T10:22:28.845Z,3.53
2023-01-25T10:25:20.533Z,4.10
2023-01-25T10:28:01.410Z,4.00
2023-01-25T10:30:49.632Z,4.03
2023-01-25T10:33:21.300Z,4.20
2023-01-25T10:35:51.428Z,3.78
2023-01-25T10:38:28.632Z,4.03
2023-01-25T10:41:03.101Z,4.18
2023-01-25T10:43:31.580Z,5.45
2023-01-25T10:46:00.169Z,5.10
2023-01-25T10:48:32.944Z,5.38
2023-01-25T10:51:01.429Z,4.28
2023-01-25T10:53:33.183Z,4.22
2023-01-25T10:56:19.327Z,5.22
2023-01-25T10:58:49.487Z,5.10
2023-01-25T11:01:34.819Z,4.20
2023-01-25T11:04:03.917Z,5.28
2023-01-25T11:06:35.812Z,4.80
2023-01-25T11:09:35.155Z,4.60
2023-01-25T11:12:16.972Z,5.47
2023-01-25T11:14:45.821Z,4.57
2023-01-25T11:17:30.484Z,4.00
2023-01-25T11:20:19.288Z,5.55
2023-01-25T11:22:53.461Z,3.67
2023-01-25T11:25:32.960Z,3.65
2023-01-25T11:28:18.380Z,5.57
2023-01-25T11:30:48.848Z,4.32
2023-01-25T11:33:19.772Z,3.97
2023-01-25T11:36:10.669Z,5.13
2023-01-25T11:38:47.792Z,4.57
2023-01-25T11:41:27.543Z,4.35
2023-01-25T11:44:19.749Z,4.85
2023-01-25T11:47:00.951Z,3.75
2023-01-25T11:49:40.042Z,3.72
2023-01-25T11:52:21.565Z,3.90
2023-01-25T11:54:59.605Z,4.50
2023-01-25T11:57:39.520Z,4.15
2023-01-25T12:00:25.136Z,3.70
2023-01-25T12:03:19.695Z,3.92
2023-01-25T12:05:58.106Z,3.28
2023-01-25T12:08:43.158Z,3.58
2023-01-25T12:11:22.125Z,3.78
2023-01-25T12:13:59.097Z,3.88
2023-01-25T12:16:44.788Z,3.95
2023-01-25T12:19:30.112Z,3.15
2023-01-25T12:22:35.562Z,4.65
2023-01-25T12:25:20.405Z,4.20
2023-01-25T12:28:04.359Z,3.78
2023-01-25T12:30:44.453Z,3.85
2023-01-25T12:33:19.727Z,2.95
2023-01-25T12:35:54.893Z,4.15
2023-01-25T12:38:29.315Z,3.33
2023-01-25T12:41:03.772Z,5.00
2023-01-25T12:43:38.202Z,4.82
2023-01-25T12:46:16.229Z,3.63
2023-01-25T12:48:49.805Z,4.25
2023-01-25T12:51:19.917Z,3.58
2023-01-25T12:53:51.849Z,3.78
2023-01-25T12:56:32.740Z,4.32
2023-01-25T12:59:09.200Z,4.28
2023-01-25T13:01:50.597Z,3.95
2023-01-25T13:04:29.822Z,4.70
2023-01-25T13:07:08.598Z,4.28
2023-01-25T13:09:45.580Z,4.78
2023-01-25T13:12:14.154Z,6.07
2023-01-25T13:14:43.707Z,5.07
2023-01-25T13:17:25.046Z,3.13
2023-01-25T13:19:56.594Z,3.92
2023-01-25T13:22:58.730Z,4.72
2023-01-25T13:25:27.805Z,4.07
2023-01-25T13:28:38.275Z,4.03
2023-01-25T13:31:07.973Z,4.85
2023-01-25T13:36:45.508Z,3.67
2023-01-25T13:39:45.381Z,4.80
2023-01-25T13:42:22.005Z,3.85
2023-01-25T13:44:52.612Z,3.60
2023-01-25T13:47:25.099Z,3.88
2023-01-25T13:49:58.998Z,4.45
2023-01-25T13:52:31.629Z,3.53
2023-01-25T13:55:01.755Z,4.55
2023-01-25T13:57:33.020Z,4.18
2023-01-25T14:00:11.413Z,4.85
2023-01-25T14:02:46.947Z,4.43
2023-01-25T14:05:21.879Z,3.92
2023-01-25T14:07:57.555Z,4.60
2023-01-25T14:10:30.067Z,4.10
2023-01-25T14:13:01.451Z,3.72
2023-01-25T14:15:31.249Z,5.47
2023-01-25T14:18:19.227Z,4.38
2023-01-25T14:20:53.568Z,3.75
2023-01-25T14:23:26.807Z,4.70
2023-01-25T14:25:59.314Z,3.45
2023-01-25T14:28:29.631Z,3.67
2023-01-25T14:31:01.502Z,4.32
2023-01-25T14:33:36.079Z,4.88
2023-01-25T14:36:22.824Z,4.05
2023-01-25T14:38:53.759Z,3.80
2023-01-25T14:41:28.831Z,4.28
2023-01-25T14:44:00.538Z,3.63
2023-01-25T14:46:34.255Z,4.25
2023-01-25T14:49:28.066Z,4.30
2023-01-25T14:52:03.432Z,4.82
2023-01-25T14:54:34.235Z,4.72
2023-01-25T14:57:05.582Z,4.95
2023-01-25T14:59:38.316Z,4.85
2023-01-25T15:02:20.089Z,4.18
2023-01-25T15:04:57.198Z,4.90
2023-01-25T15:07:42.018Z,4.18
2023-01-25T15:10:19.967Z,5.10
2023-01-25T15:13:13.720Z,4.43
2023-01-25T15:16:12.883Z,4.85
2023-01-25T15:18:45.698Z,4.90
2023-01-25T15:21:16.472Z,4.03
2023-01-25T15:23:47.307Z,4.35
2023-01-25T15:26:21.023Z,4.07
2023-01-25T15:28:52.208Z,5.03
2023-01-25T15:31:23.377Z,4.53
2023-01-25T15:33:55.902Z,4.07
2023-01-25T15:38:53.509Z,3.65
2023-01-25T15:41:22.391Z,4.23
2023-01-25T15:43:52.592Z,4.03
2023-01-25T15:48:54.148Z,3.22
2023-01-25T15:51:24.318Z,3.80
2023-01-25T15:53:53.308Z,3.30
2023-01-25T15:56:23.155Z,3.60
2023-01-25T15:58:54.920Z,3.97
2023-01-25T16:01:27.016Z,3.90
2023-01-25T16:03:56.095Z,2.70
2023-01-25T16:06:35.564Z,3.08
2023-01-25T16:09:13.099Z,3.30
2023-01-25T16:11:41.753Z,3.53
2023-01-25T16:14:11.751Z,2.90
2023-01-25T16:16:42.782Z,5.20
2023-01-25T16:19:14.377Z,4.28
2023-01-25T16:21:43.299Z,3.95
2023-01-25T16:24:13.001Z,4.23
2023-01-25T16:29:15.060Z,3.55
2023-01-25T16:31:45.027Z,3.85
2023-01-25T16:36:41.975Z,2.70
2023-01-25T16:39:19.531Z,3.40
2023-01-25T16:41:51.094Z,3.00
2023-01-25T16:44:20.779Z,3.38
2023-01-25T16:46:50.676Z,3.85
2023-01-25T16:49:21.843Z,3.38
2023-01-25T16:51:50.878Z,3.08
2023-01-25T16:54:21.213Z,4.13
2023-01-25T16:56:53.168Z,3.45
2023-01-25T16:59:25.036Z,4.95
2023-01-25T17:01:56.673Z,3.83
2023-01-25T17:04:24.966Z,3.50
2023-01-25T17:06:54.285Z,3.88
2023-01-25T17:09:25.740Z,4.47
2023-01-25T17:11:57.058Z,5.60
2023-01-25T17:14:31.940Z,3.88
2023-01-25T17:17:00.872Z,3.58
2023-01-25T17:19:29.372Z,3.72
2023-01-25T17:21:59.218Z,3.80
2023-01-25T17:24:29.071Z,3.92
2023-01-25T17:26:58.439Z,3.90
2023-01-25T17:29:29.863Z,3.45
2023-01-25T17:31:59.112Z,5.18
2023-01-25T17:34:28.120Z,4.18
2023-01-25T17:36:57.082Z,4.55
2023-01-25T17:39:26.218Z,5.03
2023-01-25T17:41:54.871Z,3.72
2023-01-25T17:44:25.548Z,4.72
2023-01-25T17:46:55.548Z,4.20
2023-01-25T17:49:27.277Z,4.15
2023-01-25T17:51:55.659Z,5.18
2023-01-25T17:54:24.159Z,3.80
2023-01-25T17:56:54.177Z,3.38
2023-01-25T17:59:22.858Z,3.25
2023-01-25T18:01:51.805Z,4.07
2023-01-25T18:04:22.933Z,4.22
2023-01-25T18:06:51.670Z,6.07
2023-01-25T18:09:21.948Z,4.22
2023-01-25T18:11:50.738Z,5.57
2023-01-25T18:14:20.024Z,6.80
2023-01-25T18:16:48.707Z,5.28
2023-01-25T18:19:18.050Z,5.28
2023-01-25T18:21:47.786Z,5.47
2023-01-25T18:29:46.857Z,4.32
2023-01-25T18:32:16.625Z,5.15
2023-01-25T18:37:21.881Z,5.43
2023-01-25T18:39:52.310Z,4.38
2023-01-25T18:42:22.052Z,5.72
2023-01-25T18:47:20.602Z,5.10
2023-01-25T18:49:50.468Z,5.30
2023-01-25T18:52:25.667Z,5.80
2023-01-25T18:54:54.883Z,3.83
2023-01-25T18:57:23.210Z,4.72
2023-01-25T18:59:52.063Z,5.05
2023-01-25T19:02:20.899Z,5.57
2023-01-25T19:04:52.112Z,4.33
2023-01-25T19:07:20.375Z,4.38
2023-01-25T19:09:50.343Z,4.82
2023-01-25T19:12:18.823Z,4.68
2023-01-25T19:14:47.862Z,5.50
2023-01-25T19:17:17.178Z,5.38
2023-01-25T19:19:45.419Z,5.60
2023-01-25T19:22:14.283Z,4.47
2023-01-25T19:24:42.713Z,5.32
2023-01-25T19:27:12.482Z,4.78
2023-01-25T19:32:11.144Z,4.43
2023-01-25T19:34:40.878Z,4.70
2023-01-25T19:39:37.498Z,3.67
2023-01-25T19:42:06.786Z,4.78
2023-01-25T19:44:36.608Z,5.32
2023-01-25T19:47:07.734Z,5.43
2023-01-25T19:49:36.042Z,6.78
2023-01-25T19:52:05.582Z,7.38
2023-01-25T19:54:34.604Z,6.00
2023-01-25T19:57:05.767Z,8.80
2023-01-25T19:59:37.431Z,5.45
2023-01-25T20:02:06.328Z,7.22
2023-01-25T20:04:34.723Z,4.83
2023-01-25T20:07:02.960Z,4.70
2023-01-25T20:09:31.324Z,3.67
2023-01-25T20:12:00.650Z,4.82
2023-01-25T20:14:29.656Z,5.10
2023-01-25T20:17:00.845Z,5.88
2023-01-25T20:19:30.323Z,5.07
2023-01-25T20:22:00.554Z,4.47
2023-01-25T20:24:29.588Z,5.35
2023-01-25T20:26:59.963Z,5.25
2023-01-25T20:29:29.269Z,4.70
2023-01-25T20:31:59.033Z,6.57
2023-01-25T20:36:56.740Z,5.47
2023-01-25T20:39:25.452Z,4.60
2023-01-25T20:41:56.790Z,5.80
2023-01-25T20:44:25.152Z,5.35
2023-01-25T20:46:55.743Z,5.18
2023-01-25T20:49:27.626Z,5.50
2023-01-25T20:51:57.110Z,4.85
2023-01-25T20:54:26.050Z,5.30
2023-01-25T20:56:54.875Z,6.65
2023-01-25T20:59:24.706Z,5.68
2023-01-25T21:01:53.543Z,6.25
2023-01-25T21:04:22.061Z,5.10
2023-01-25T21:06:52.873Z,4.95
2023-01-25T21:09:23.681Z,5.30
2023-01-25T21:11:52.398Z,6.35
2023-01-25T21:14:20.932Z,5.00
2023-01-25T21:16:49.533Z,4.97
2023-01-25T21:19:18.002Z,4.78
2023-01-25T21:21:46.575Z,5.22
2023-01-25T21:24:17.403Z,6.40
2023-01-25T21:26:46.189Z,4.60
2023-01-25T21:29:14.644Z,6.05
2023-01-25T21:31:43.726Z,6.55
2023-01-25T21:34:12.688Z,4.57
2023-01-25T21:36:41.008Z,7.63
2023-01-25T21:39:09.525Z,6.22
2023-01-25T21:41:40.234Z,4.90
2023-01-25T21:44:27.270Z,4.72
2023-01-25T21:47:27.786Z,5.30
2023-01-25T21:50:05.708Z,7.13
2023-01-25T21:52:36.331Z,5.68
2023-01-25T21:55:05.541Z,5.90
2023-01-25T21:57:36.552Z,5.97
2023-01-25T22:00:05.472Z,5.70
2023-01-25T22:02:34.218Z,4.75
2023-01-25T22:05:02.866Z,4.90
2023-01-25T22:07:33.705Z,4.57
2023-01-25T22:10:02.268Z,6.95
2023-01-25T22:12:30.745Z,6.30
2023-01-25T22:15:00.390Z,5.63
2023-01-25T22:17:29.450Z,5.55
2023-01-25T22:19:59.330Z,5.75
2023-01-25T22:22:27.780Z,6.40
2023-01-25T22:24:57.552Z,7.53
2023-01-25T22:27:37.628Z,5.10
2023-01-25T22:30:11.408Z,6.20
2023-01-25T22:32:40.054Z,5.85
2023-01-25T22:35:09.710Z,6.63
2023-01-25T22:40:09.229Z,5.78
2023-01-25T22:42:38.975Z,6.00
2023-01-25T22:45:10.561Z,5.72
2023-01-25T22:47:38.866Z,5.93
2023-01-25T22:50:08.409Z,5.82
2023-01-25T22:52:38.085Z,5.82
2023-01-25T22:57:39.219Z,5.75
2023-01-25T23:00:11.976Z,6.05
2023-01-25T23:02:40.595Z,5.45
2023-01-25T23:05:09.633Z,6.32
2023-01-25T23:07:37.951Z,6.05
2023-01-25T23:10:07.504Z,6.22
2023-01-25T23:12:35.727Z,5.85
2023-01-25T23:15:07.160Z,6.25
2023-01-25T23:17:54.281Z,7.25
2023-01-25T23:20:23.866Z,5.65
2023-01-25T23:22:52.505Z,6.28
2023-01-25T23:25:21.034Z,5.90
2023-01-25T23:27:49.728Z,6.38
2023-01-25T23:30:18.564Z,5.10
2023-01-25T23:32:49.832Z,6.60
2023-01-25T23:35:19.339Z,5.63
2023-01-25T23:37:48.555Z,5.20
2023-01-25T23:40:17.737Z,5.07
2023-01-25T23:42:46.231Z,5.50
2023-01-25T23:45:14.774Z,6.55
2023-01-25T23:47:43.432Z,5.47
2023-01-25T23:50:13.571Z,5.53
2023-01-25T23:52:42.492Z,6.90
2023-01-25T23:55:13.715Z,7.03
2023-01-25T23:57:41.879Z,5.95
